Terminal Aerodrome Forecast
Issued by NWS

Home | Current Version | Previous Version | Text Only | Print | Product List | Glossary On
Versions: 1 2 3 4 5 6 7 8 9 10 11 12
000
FTUS41 KBOX 211738
TAFFMH
TAF
KFMH 211738Z 2118/2218 07004KT P6SM SCT250
     FM211900 15004KT P6SM FEW250
     FM220400 21004KT P6SM BKN250
     FM220900 22005KT P6SM BKN080
     FM221400 23008KT P6SM BKN050=

USA.gov is the U.S. government's official web portal to all federal, state and local government web resources and services.